createdAt,value
2023-04-01T03:00:20.892Z,98215.58
2023-04-01T03:02:50.713Z,98214.57
2023-04-01T03:05:20.771Z,98213.14
2023-04-01T03:07:50.020Z,98215.17
2023-04-01T03:10:19.084Z,98213.89
2023-04-01T03:12:48.410Z,98215.19
2023-04-01T03:15:17.349Z,98216.42
2023-04-01T03:17:46.435Z,98217.81
2023-04-01T03:20:16.472Z,98216.16
2023-04-01T03:22:47.412Z,98220.52
2023-04-01T03:25:16.407Z,98221.90
2023-04-01T03:27:45.568Z,98219.35
2023-04-01T03:30:14.610Z,98220.66
2023-04-01T03:32:49.208Z,98210.32
2023-04-01T03:35:18.192Z,98217.56
2023-04-01T03:37:48.480Z,98214.76
2023-04-01T03:40:17.617Z,98218.11
2023-04-01T03:42:47.213Z,98218.36
2023-04-01T03:45:17.853Z,98224.65
2023-04-01T03:47:47.088Z,98222.13
2023-04-01T03:50:16.785Z,98223.62
2023-04-01T03:52:45.758Z,98226.32
2023-04-01T03:55:14.597Z,98224.94
2023-04-01T03:57:45.126Z,98225.25
2023-04-01T04:00:18.271Z,98224.42
2023-04-01T04:02:47.543Z,98225.32
2023-04-01T04:05:20.781Z,98225.09
2023-04-01T04:07:49.779Z,98225.78
2023-04-01T04:10:18.628Z,98228.53
2023-04-01T04:12:47.329Z,98230.95
2023-04-01T04:15:17.636Z,98234.37
2023-04-01T04:17:47.008Z,98239.67
2023-04-01T04:20:16.902Z,98242.09
2023-04-01T04:22:47.968Z,98240.17
2023-04-01T04:25:16.556Z,98243.83
2023-04-01T04:27:45.523Z,98245.27
2023-04-01T04:30:15.046Z,98245.43
2023-04-01T04:32:43.585Z,98243.59
2023-04-01T04:35:13.008Z,98241.45
2023-04-01T04:37:42.190Z,98245.17
2023-04-01T04:40:12.068Z,98244.53
2023-04-01T04:42:41.211Z,98246.66
2023-04-01T04:45:14.042Z,98247.22
2023-04-01T04:47:47.993Z,98250.66
2023-04-01T04:50:18.317Z,98254.71
2023-04-01T04:52:46.658Z,98254.73
2023-04-01T04:55:16.610Z,98255.65
2023-04-01T04:57:47.945Z,98256.89
2023-04-01T05:00:17.076Z,98259.16
2023-04-01T05:02:55.528Z,98261.15
2023-04-01T05:05:24.762Z,98260.23
2023-04-01T05:07:54.133Z,98268.59
2023-04-01T05:10:22.561Z,98267.47
2023-04-01T05:12:51.340Z,98271.71
2023-04-01T05:15:23.416Z,98269.48
2023-04-01T05:17:52.676Z,98268.45
2023-04-01T05:20:22.146Z,98272.89
2023-04-01T05:22:50.716Z,98275.72
2023-04-01T05:25:19.606Z,98277.39
2023-04-01T05:27:47.859Z,98277.20
2023-04-01T05:30:16.472Z,98279.40
2023-04-01T05:33:06.454Z,98281.44
2023-04-01T05:35:36.064Z,98278.44
2023-04-01T05:38:05.504Z,98279.48
2023-04-01T05:40:33.818Z,98284.45
2023-04-01T05:43:02.221Z,98285.60
2023-04-01T05:45:31.880Z,98285.35
2023-04-01T05:48:01.605Z,98287.20
2023-04-01T05:50:35.133Z,98287.45
2023-04-01T05:53:04.587Z,98288.80
2023-04-01T05:55:33.370Z,98291.40
2023-04-01T05:58:02.353Z,98289.60
2023-04-01T06:00:32.046Z,98297.61
2023-04-01T06:03:02.209Z,98300.68
2023-04-01T06:05:32.923Z,98303.66
2023-04-01T06:08:07.706Z,98302.68
2023-04-01T06:10:56.533Z,98310.60
2023-04-01T06:13:43.773Z,98309.68
2023-04-01T06:16:12.844Z,98308.92
2023-04-01T06:18:41.970Z,98312.79
2023-04-01T06:21:20.206Z,98312.41
2023-04-01T06:24:06.265Z,98317.10
2023-04-01T06:26:39.610Z,98321.67
2023-04-01T06:29:21.209Z,98325.48
2023-04-01T06:32:09.263Z,98325.20
2023-04-01T06:34:41.672Z,98323.88
2023-04-01T06:37:29.259Z,98328.66
2023-04-01T06:39:58.219Z,98332.77
2023-04-01T06:42:27.735Z,98338.08
2023-04-01T06:45:15.792Z,98337.40
2023-04-01T06:48:06.973Z,98338.69
2023-04-01T06:50:57.586Z,98339.25
2023-04-01T06:53:54.946Z,98342.89
2023-04-01T06:56:57.052Z,98346.20
2023-04-01T06:59:28.675Z,98346.71
2023-04-01T07:02:18.130Z,98352.91
2023-04-01T07:04:52.887Z,98359.73
2023-04-01T07:07:21.899Z,98362.31
2023-04-01T07:10:03.340Z,98365.09
2023-04-01T07:12:32.710Z,98372.44
2023-04-01T07:26:58.944Z,98378.39
2023-04-01T07:29:30.486Z,98382.08
2023-04-01T07:32:23.982Z,98381.98
2023-04-01T07:35:14.575Z,98383.58
2023-04-01T07:38:17.092Z,98388.64
2023-04-01T07:40:55.309Z,98392.37
2023-04-01T07:43:33.179Z,98392.86
2023-04-01T07:46:32.749Z,98391.84
2023-04-01T07:49:13.960Z,98397.13
2023-04-01T07:52:10.832Z,98403.98
2023-04-01T07:54:57.288Z,98408.51
2023-04-01T07:57:42.689Z,98413.54
2023-04-01T08:00:24.294Z,98411.27
2023-04-01T08:03:16.721Z,98411.79
2023-04-01T08:06:08.878Z,98414.75
2023-04-01T08:08:41.844Z,98417.83
2023-04-01T08:12:31.525Z,98419.98
2023-04-01T08:15:22.516Z,98422.42
2023-04-01T08:18:27.972Z,98428.05
2023-04-01T08:21:47.537Z,98433.19
2023-04-01T08:24:34.341Z,98432.20
2023-04-01T08:28:16.532Z,98438.02
2023-04-01T08:30:59.414Z,98439.77
2023-04-01T08:33:48.139Z,98441.95
2023-04-01T08:36:20.686Z,98444.64
2023-04-01T08:39:01.311Z,98447.70
2023-04-01T08:41:43.095Z,98448.23
2023-04-01T08:45:07.054Z,98448.70
2023-04-01T08:48:10.212Z,98449.67
2023-04-01T08:50:44.377Z,98454.50
2023-04-01T08:54:21.681Z,98459.25
2023-04-01T08:57:00.149Z,98458.98
2023-04-01T08:59:51.518Z,98458.72
2023-04-01T09:03:24.916Z,98460.31
2023-04-01T09:06:12.092Z,98459.88
2023-04-01T09:08:46.608Z,98459.23
2023-04-01T09:11:43.338Z,98462.58
2023-04-01T09:14:43.971Z,98465.19
2023-04-01T09:17:46.369Z,98466.14
2023-04-01T09:20:37.230Z,98469.14
2023-04-01T09:23:24.911Z,98473.11
2023-04-01T09:26:15.279Z,98477.52
2023-04-01T09:29:23.481Z,98477.27
2023-04-01T09:32:14.593Z,98480.92
2023-04-01T09:35:08.725Z,98484.55
2023-04-01T09:37:51.361Z,98488.52
2023-04-01T09:40:53.655Z,98489.02
2023-04-01T09:43:57.851Z,98489.54
2023-04-01T09:46:45.830Z,98494.77
2023-04-01T09:49:53.986Z,98492.94
2023-04-01T09:52:55.257Z,98499.27
2023-04-01T09:55:59.765Z,98501.88
2023-04-01T09:58:57.752Z,98508.18
2023-04-01T10:02:03.550Z,98514.48
2023-04-01T10:05:14.158Z,98513.50
2023-04-01T10:07:59.262Z,98519.39
2023-04-01T10:11:13.730Z,98522.02
2023-04-01T10:14:14.158Z,98523.91
2023-04-01T10:17:08.093Z,98525.80
2023-04-01T10:20:15.024Z,98526.79
2023-04-01T10:22:55.827Z,98537.34
2023-04-01T10:25:44.049Z,98542.48
2023-04-01T10:28:27.829Z,98543.66
2023-04-01T10:32:22.105Z,98548.11
2023-04-01T10:35:12.170Z,98552.02
2023-04-01T10:38:11.966Z,98550.52
2023-04-01T10:40:43.838Z,98553.17
2023-04-01T10:43:56.490Z,98548.23
2023-04-01T10:47:04.998Z,98550.61
2023-04-01T10:49:55.602Z,98553.95
2023-04-01T10:52:54.926Z,98553.60
2023-04-01T10:56:21.787Z,98554.45
2023-04-01T10:59:55.597Z,98557.23
2023-04-01T11:03:22.360Z,98564.11
2023-04-01T11:06:51.097Z,98564.98
2023-04-01T11:10:04.793Z,98570.61
2023-04-01T11:12:56.852Z,98576.11
2023-04-01T11:15:42.329Z,98577.68
2023-04-01T11:18:51.791Z,98586.99
2023-04-01T11:21:26.545Z,98586.11
2023-04-01T11:25:13.584Z,98587.27
2023-04-01T11:33:12.359Z,98597.02
2023-04-01T11:35:56.619Z,98596.96
2023-04-01T11:38:45.225Z,98600.29
2023-04-01T11:42:03.551Z,98604.45
2023-04-01T11:46:10.596Z,98602.45
2023-04-01T11:49:31.555Z,98610.73
2023-04-01T11:52:46.174Z,98607.95
2023-04-01T11:55:26.078Z,98613.23
2023-04-01T11:58:16.015Z,98619.83
2023-04-01T12:01:07.105Z,98620.03
2023-04-01T12:08:26.083Z,98631.11
2023-04-01T12:11:44.684Z,98638.16
2023-04-01T12:15:27.793Z,98645.79
2023-04-01T12:18:05.054Z,98655.09
2023-04-01T12:21:14.905Z,98657.61
2023-04-01T12:24:38.214Z,98661.30
2023-04-01T12:31:38.358Z,98667.65
2023-04-01T12:34:44.050Z,98669.27
2023-04-01T12:38:01.322Z,98672.44
2023-04-01T12:41:08.492Z,98677.44
2023-04-01T12:43:42.598Z,98683.64
2023-04-01T12:46:46.440Z,98683.43
2023-04-01T12:49:17.853Z,98689.85
2023-04-01T12:51:46.291Z,98692.74
2023-04-01T12:54:42.946Z,98696.22
2023-04-01T12:57:26.445Z,98696.24
2023-04-01T13:05:02.923Z,98698.97
2023-04-01T13:07:37.629Z,98706.45
2023-04-01T13:14:45.038Z,98713.70
2023-04-01T13:27:31.897Z,98731.05
2023-04-01T13:34:54.961Z,98737.66
2023-04-01T13:38:01.237Z,98736.88
2023-04-01T13:40:46.853Z,98736.34
2023-04-01T13:43:30.878Z,98742.30
2023-04-01T13:46:02.398Z,98742.66
2023-04-01T13:48:50.389Z,98748.87
2023-04-01T13:51:53.470Z,98758.34
2023-04-01T13:54:52.494Z,98760.44
2023-04-01T13:57:39.950Z,98762.02
2023-04-01T14:00:27.624Z,98766.31
2023-04-01T14:03:09.225Z,98769.08
2023-04-01T14:05:53.043Z,98771.63
2023-04-01T14:08:56.842Z,98771.59
2023-04-01T14:11:43.626Z,98781.39
2023-04-01T14:14:50.457Z,98785.02
2023-04-01T14:17:32.209Z,98786.13
2023-04-01T14:20:27.549Z,98787.17
2023-04-01T14:23:33.185Z,98790.16
2023-04-01T14:26:01.618Z,98796.31
2023-04-01T14:28:58.363Z,98802.57
2023-04-01T14:32:02.397Z,98800.80
2023-04-01T14:35:01.452Z,98805.45
2023-04-01T14:37:48.979Z,98809.22
2023-04-01T14:40:57.423Z,98812.53
2023-04-01T14:44:00.126Z,98818.61
2023-04-01T14:46:49.200Z,98822.10
2023-04-01T14:49:32.303Z,98826.90
2023-04-01T14:52:22.573Z,98832.09
2023-04-01T14:54:53.320Z,98836.30
2023-04-01T14:57:33.636Z,98835.45
2023-04-01T15:00:05.071Z,98847.05
2023-04-01T15:02:48.298Z,98852.34
2023-04-01T15:05:36.522Z,98860.11
2023-04-01T15:08:14.748Z,98863.81
2023-04-01T15:11:19.961Z,98865.73
2023-04-01T15:14:15.105Z,98867.77
2023-04-01T15:17:03.340Z,98874.45
2023-04-01T15:19:57.379Z,98879.11
2023-04-01T15:22:34.958Z,98880.45
2023-04-01T15:25:38.637Z,98884.79
2023-04-01T15:28:32.897Z,98888.46
2023-04-01T15:31:28.367Z,98895.95
2023-04-01T15:34:19.094Z,98902.66
2023-04-01T15:36:57.391Z,98908.64
2023-04-01T15:39:33.622Z,98909.93
2023-04-01T15:42:26.853Z,98910.56
2023-04-01T15:45:09.135Z,98911.06
2023-04-01T15:47:37.631Z,98916.11
2023-04-01T15:50:40.325Z,98917.49
2023-04-01T15:53:29.439Z,98921.10
2023-04-01T15:56:08.933Z,98930.73
2023-04-01T15:58:57.378Z,98934.39
2023-04-01T16:02:09.483Z,98932.98
2023-04-01T16:04:41.491Z,98938.16
2023-04-01T16:07:41.754Z,98941.27
2023-04-01T16:10:48.172Z,98946.86
2023-04-01T16:13:39.286Z,98953.46
2023-04-01T16:16:20.094Z,98955.67
2023-04-01T16:19:12.152Z,98959.06
2023-04-01T16:21:53.309Z,98963.88
2023-04-01T16:24:42.815Z,98974.64
2023-04-01T16:27:24.210Z,98970.77
2023-04-01T16:30:03.392Z,98979.95
2023-04-01T16:32:48.498Z,98984.00
2023-04-01T16:35:41.988Z,98983.84
2023-04-01T16:38:42.206Z,98988.00
2023-04-01T16:41:38.712Z,98992.45
2023-04-01T16:44:28.581Z,98992.56
2023-04-01T16:47:06.756Z,98999.98
2023-04-01T16:49:41.460Z,99002.79
2023-04-01T16:52:10.985Z,99007.23
2023-04-01T16:54:58.788Z,99011.05
2023-04-01T16:57:38.218Z,99014.69
2023-04-01T17:00:42.017Z,99018.02
2023-04-01T17:03:22.975Z,99026.47
2023-04-01T17:06:12.503Z,99032.63
2023-04-01T17:09:02.831Z,99040.94
2023-04-01T17:11:43.915Z,99042.53
2023-04-01T17:14:30.010Z,99046.33
2023-04-01T17:17:21.028Z,99046.02
2023-04-01T17:20:36.585Z,99052.47
2023-04-01T17:23:14.832Z,99055.71
2023-04-01T17:26:32.447Z,99059.39
2023-04-01T17:29:14.054Z,99061.16
2023-04-01T17:32:20.476Z,99062.60
2023-04-01T17:35:34.500Z,99063.69
2023-04-01T17:38:15.661Z,99068.61
2023-04-01T17:40:58.144Z,99072.09
2023-04-01T17:43:50.478Z,99075.12
2023-04-01T17:46:42.719Z,99077.30
2023-04-01T17:49:34.986Z,99080.77
2023-04-01T17:52:21.824Z,99081.70
2023-04-01T17:54:55.523Z,99088.13
2023-04-01T17:57:43.398Z,99093.37
2023-04-01T18:00:27.258Z,99100.79
2023-04-01T18:02:59.550Z,99107.92
2023-04-01T18:05:40.133Z,99113.11
2023-04-01T18:08:34.020Z,99115.09
2023-04-01T18:11:14.552Z,99119.73
2023-04-01T18:14:10.333Z,99126.66
2023-04-01T18:16:58.627Z,99135.05
2023-04-01T18:19:39.785Z,99138.69
2023-04-01T18:22:24.159Z,99139.26
2023-04-01T18:25:23.552Z,99144.94
2023-04-01T18:28:01.360Z,99148.39
2023-04-01T18:30:32.990Z,99147.83
2023-04-01T18:33:18.057Z,99152.08
2023-04-01T18:36:21.777Z,99157.11
2023-04-01T18:39:12.751Z,99159.09
2023-04-01T18:42:09.573Z,99159.98
2023-04-01T18:44:49.687Z,99162.99
2023-04-01T18:47:45.078Z,99166.44
2023-04-01T18:50:49.055Z,99164.70
2023-04-01T18:53:27.709Z,99168.65
2023-04-01T18:56:04.016Z,99173.86
2023-04-01T18:58:46.793Z,99181.60
2023-04-01T19:01:41.608Z,99179.14
2023-04-01T19:04:40.591Z,99185.63
2023-04-01T19:07:50.785Z,99183.16
2023-04-01T19:10:48.401Z,99182.45
2023-04-01T19:13:40.467Z,99185.66
2023-04-01T19:16:37.152Z,99187.79
2023-04-01T19:19:36.278Z,99190.40
2023-04-01T19:22:42.495Z,99200.39
2023-04-01T19:25:14.320Z,99201.50
2023-04-01T19:27:54.675Z,99203.36
2023-04-01T19:30:48.763Z,99207.05
2023-04-01T19:33:39.187Z,99216.93
2023-04-01T19:36:20.004Z,99218.14
2023-04-01T19:38:51.972Z,99224.95
2023-04-01T19:41:36.530Z,99229.88
2023-04-01T19:44:20.286Z,99228.41
2023-04-01T19:47:21.778Z,99234.00
2023-04-01T19:50:29.937Z,99234.20
2023-04-01T19:53:07.424Z,99235.49
2023-04-01T19:55:46.286Z,99238.52
2023-04-01T19:58:41.274Z,99240.49
2023-04-01T20:01:18.795Z,99244.09
2023-04-01T20:03:57.554Z,99248.05
2023-04-01T20:06:47.850Z,99257.23
2023-04-01T20:09:51.476Z,99260.00
2023-04-01T20:12:46.497Z,99265.23
2023-04-01T20:15:34.410Z,99267.93
2023-04-01T20:18:16.334Z,99270.23
2023-04-01T20:21:00.972Z,99274.09
2023-04-01T20:23:44.473Z,99281.86
2023-04-01T20:26:15.571Z,99284.67
2023-04-01T20:29:14.402Z,99293.24
2023-04-01T20:31:46.745Z,99293.50
2023-04-01T20:34:27.947Z,99296.38
2023-04-01T20:37:02.751Z,99298.98
2023-04-01T20:40:16.020Z,99303.42
2023-04-01T20:43:20.664Z,99309.04
2023-04-01T20:45:59.195Z,99313.19
2023-04-01T20:49:01.911Z,99310.48
2023-04-01T20:51:35.981Z,99315.80
2023-04-01T20:54:13.239Z,99317.38
2023-04-01T20:56:58.749Z,99319.92
2023-04-01T20:59:40.729Z,99323.27
2023-04-01T21:02:30.868Z,99322.88
2023-04-01T21:05:19.399Z,99327.44
2023-04-01T21:08:04.963Z,99328.66
2023-04-01T21:10:44.929Z,99329.77
2023-04-01T21:13:43.409Z,99333.58
2023-04-01T21:16:28.289Z,99332.83
2023-04-01T21:18:59.829Z,99337.03
2023-04-01T21:21:57.767Z,99337.39
2023-04-01T21:24:45.788Z,99339.04
2023-04-01T21:27:54.144Z,99340.14
2023-04-01T21:31:11.452Z,99339.73
2023-04-01T21:34:00.454Z,99344.04
2023-04-01T21:37:02.045Z,99344.41
2023-04-01T21:39:58.633Z,99349.73
2023-04-01T21:42:46.118Z,99349.02
2023-04-01T21:45:52.037Z,99349.24
2023-04-01T21:48:51.441Z,99347.92
2023-04-01T21:51:57.593Z,99350.86
2023-04-01T21:54:55.196Z,99356.36
2023-04-01T21:57:46.345Z,99358.74
2023-04-01T22:00:33.942Z,99362.80
2023-04-01T22:03:23.998Z,99365.34
2023-04-01T22:06:04.602Z,99368.39
2023-04-01T22:08:53.711Z,99373.60
2023-04-01T22:11:39.814Z,99369.88
2023-04-01T22:14:19.150Z,99374.38
2023-04-01T22:17:05.007Z,99377.92
2023-04-01T22:19:58.313Z,99378.78
2023-04-01T22:22:50.454Z,99383.25
2023-04-01T22:25:41.845Z,99387.29
2023-04-01T22:28:30.811Z,99391.71
2023-04-01T22:31:04.400Z,99391.33
2023-04-01T22:33:57.876Z,99392.53
2023-04-01T22:36:50.085Z,99393.63
2023-04-01T22:40:09.970Z,99396.73
2023-04-01T22:43:23.035Z,99406.66
2023-04-01T22:46:25.214Z,99406.98
2023-04-01T22:49:29.154Z,99410.86
2023-04-01T22:52:14.254Z,99414.75
2023-04-01T22:55:00.034Z,99418.55
2023-04-01T22:57:31.950Z,99422.11
2023-04-01T23:00:22.366Z,99426.09
2023-04-01T23:03:13.800Z,99428.86
2023-04-01T23:05:53.142Z,99430.02
2023-04-01T23:08:43.158Z,99428.61
2023-04-01T23:11:20.070Z,99431.00
2023-04-01T23:14:06.661Z,99427.52
2023-04-01T23:16:49.231Z,99436.96
2023-04-01T23:20:16.880Z,99436.20
2023-04-01T23:23:09.513Z,99435.35
2023-04-01T23:26:11.422Z,99446.84
2023-04-01T23:28:54.884Z,99446.95
2023-04-01T23:31:46.895Z,99446.96
2023-04-01T23:34:36.573Z,99448.16
2023-04-01T23:37:17.181Z,99454.41
2023-04-01T23:39:54.077Z,99451.56
2023-04-01T23:42:33.242Z,99457.96
2023-04-01T23:45:14.582Z,99459.96
2023-04-01T23:47:45.114Z,99464.07
2023-04-01T23:50:22.567Z,99464.55
2023-04-01T23:53:01.966Z,99465.05
2023-04-01T23:55:35.873Z,99472.03
2023-04-01T23:58:09.301Z,99473.47
